createdAt,value
2023-03-11T00:00:33.502Z,3.60
2023-03-11T00:03:03.242Z,3.60
2023-03-11T00:05:34.925Z,3.60
2023-03-11T00:08:04.180Z,3.70
2023-03-11T00:10:34.175Z,3.70
2023-03-11T00:13:03.018Z,3.80
2023-03-11T00:15:31.925Z,3.70
2023-03-11T00:18:00.426Z,3.70
2023-03-11T00:20:30.779Z,3.70
2023-03-11T00:23:01.333Z,3.70
2023-03-11T00:25:32.615Z,3.70
2023-03-11T00:28:01.806Z,3.70
2023-03-11T00:30:30.555Z,3.70
2023-03-11T00:33:00.116Z,3.80
2023-03-11T00:35:30.829Z,3.80
2023-03-11T00:38:02.494Z,3.80
2023-03-11T00:40:32.425Z,3.80
2023-03-11T00:43:01.097Z,3.80
2023-03-11T00:45:30.226Z,3.70
2023-03-11T00:47:58.984Z,3.80
2023-03-11T00:50:29.918Z,3.70
2023-03-11T00:53:00.401Z,3.60
2023-03-11T00:55:30.437Z,3.60
2023-03-11T00:58:00.897Z,3.60
2023-03-11T01:00:30.354Z,3.50
2023-03-11T01:02:59.047Z,3.50
2023-03-11T01:05:30.995Z,3.50
2023-03-11T01:08:01.167Z,3.60
2023-03-11T01:10:30.679Z,3.60
2023-03-11T01:12:59.246Z,3.70
2023-03-11T01:15:29.661Z,3.60
2023-03-11T01:17:58.201Z,3.60
2023-03-11T01:20:26.410Z,3.60
2023-03-11T01:22:54.856Z,3.60
2023-03-11T01:25:25.854Z,3.70
2023-03-11T01:27:54.130Z,3.70
2023-03-11T01:30:23.924Z,3.70
2023-03-11T01:32:53.262Z,3.70
2023-03-11T01:35:23.892Z,3.80
2023-03-11T01:37:52.434Z,3.80
2023-03-11T01:40:24.505Z,3.70
2023-03-11T01:42:54.337Z,3.70
2023-03-11T01:45:39.478Z,3.80
2023-03-11T01:48:08.788Z,3.80
2023-03-11T01:50:40.467Z,3.80
2023-03-11T01:53:09.329Z,3.80
2023-03-11T01:55:37.942Z,3.80
2023-03-11T01:58:10.147Z,3.90
2023-03-11T02:00:39.038Z,3.90
2023-03-11T02:03:12.776Z,3.80
2023-03-11T02:05:41.969Z,3.80
2023-03-11T02:08:10.265Z,3.80
2023-03-11T02:10:41.781Z,3.80
2023-03-11T02:13:11.736Z,3.80
2023-03-11T02:15:40.701Z,3.70
2023-03-11T02:18:10.526Z,3.70
2023-03-11T02:20:46.317Z,3.70
2023-03-11T02:23:15.956Z,3.70
2023-03-11T02:25:52.023Z,3.60
2023-03-11T02:28:23.000Z,3.60
2023-03-11T02:30:53.171Z,3.60
2023-03-11T02:33:21.388Z,3.60
2023-03-11T02:35:50.110Z,3.60
2023-03-11T02:38:18.236Z,3.60
2023-03-11T02:40:51.864Z,3.60
2023-03-11T02:43:26.736Z,3.50
2023-03-11T02:45:55.586Z,3.50
2023-03-11T02:48:24.577Z,3.40
2023-03-11T02:50:53.841Z,3.40
2023-03-11T02:53:22.092Z,3.40
2023-03-11T02:55:53.307Z,3.40
2023-03-11T02:58:22.955Z,3.40
2023-03-11T03:00:51.187Z,3.40
2023-03-11T03:03:19.473Z,3.30
2023-03-11T03:05:47.666Z,3.30
2023-03-11T03:08:15.859Z,3.30
2023-03-11T03:10:44.018Z,3.30
2023-03-11T03:13:12.337Z,3.30
2023-03-11T03:15:42.248Z,3.30
2023-03-11T03:18:10.702Z,3.30
2023-03-11T03:20:38.930Z,3.20
2023-03-11T03:23:07.164Z,3.20
2023-03-11T03:25:35.352Z,3.20
2023-03-11T03:28:03.722Z,3.10
2023-03-11T03:30:31.968Z,3.20
2023-03-11T03:33:01.772Z,3.20
2023-03-11T03:35:30.038Z,3.20
2023-03-11T03:37:58.176Z,3.20
2023-03-11T03:40:27.038Z,3.20
2023-03-11T03:42:55.390Z,3.20
2023-03-11T03:45:23.574Z,3.10
2023-03-11T03:47:51.799Z,3.10
2023-03-11T03:50:21.360Z,3.10
2023-03-11T03:52:49.534Z,3.20
2023-03-11T03:55:17.872Z,3.10
2023-03-11T03:57:46.090Z,3.10
2023-03-11T04:00:15.802Z,3.00
2023-03-11T04:02:43.974Z,3.00
2023-03-11T04:05:12.217Z,3.00
2023-03-11T04:07:41.930Z,2.90
2023-03-11T04:10:11.051Z,2.90
2023-03-11T04:12:39.695Z,2.90
2023-03-11T04:15:09.457Z,2.90
2023-03-11T04:17:37.990Z,2.80
2023-03-11T04:20:09.120Z,2.80
2023-03-11T04:22:37.634Z,2.70
2023-03-11T04:25:08.625Z,2.70
2023-03-11T04:27:38.358Z,2.60
2023-03-11T04:30:07.976Z,2.60
2023-03-11T04:32:36.629Z,2.60
2023-03-11T04:35:05.142Z,2.70
2023-03-11T04:37:33.735Z,2.70
2023-03-11T04:40:01.933Z,2.60
2023-03-11T04:42:31.454Z,2.60
2023-03-11T04:44:59.669Z,2.60
2023-03-11T04:47:28.033Z,2.60
2023-03-11T04:49:56.269Z,2.60
2023-03-11T04:52:24.545Z,2.60
2023-03-11T04:54:52.926Z,2.70
2023-03-11T04:57:21.573Z,2.60
2023-03-11T04:59:51.078Z,2.60
2023-03-11T05:02:19.199Z,2.60
2023-03-11T05:04:47.688Z,2.60
2023-03-11T05:07:15.937Z,2.50
2023-03-11T05:09:44.589Z,2.50
2023-03-11T05:12:13.536Z,2.50
2023-03-11T05:14:41.933Z,2.60
2023-03-11T05:17:12.136Z,2.50
2023-03-11T05:19:40.597Z,2.60
2023-03-11T05:22:09.039Z,2.60
2023-03-11T05:24:37.570Z,2.60
2023-03-11T05:27:06.500Z,2.60
2023-03-11T05:29:35.010Z,2.60
2023-03-11T05:32:03.171Z,2.60
2023-03-11T05:34:33.090Z,2.60
2023-03-11T05:37:03.193Z,2.70
2023-03-11T05:39:31.675Z,2.60
2023-03-11T05:41:59.801Z,2.60
2023-03-11T05:44:27.956Z,2.60
2023-03-11T05:46:56.287Z,2.70
2023-03-11T05:49:24.642Z,2.70
2023-03-11T05:51:56.086Z,2.70
2023-03-11T05:54:25.952Z,2.70
2023-03-11T05:56:54.167Z,2.80
2023-03-11T05:59:23.244Z,2.80
2023-03-11T06:01:51.421Z,2.80
2023-03-11T06:04:19.744Z,2.80
2023-03-11T06:06:48.017Z,2.90
2023-03-11T06:09:17.744Z,2.90
2023-03-11T06:11:45.922Z,2.90
2023-03-11T06:14:15.907Z,2.90
2023-03-11T06:16:44.100Z,2.90
2023-03-11T06:19:12.603Z,3.00
2023-03-11T06:21:41.008Z,3.00
2023-03-11T06:24:09.496Z,3.00
2023-03-11T06:26:38.971Z,3.00
2023-03-11T06:29:12.585Z,3.10
2023-03-11T06:31:41.717Z,3.10
2023-03-11T06:34:11.653Z,3.10
2023-03-11T06:36:40.055Z,3.10
2023-03-11T06:39:09.352Z,3.20
2023-03-11T06:41:38.908Z,3.20
2023-03-11T06:44:07.189Z,3.30
2023-03-11T06:46:35.974Z,3.30
2023-03-11T06:49:04.504Z,3.30
2023-03-11T06:51:32.741Z,3.40
2023-03-11T06:54:01.296Z,3.30
2023-03-11T06:56:29.506Z,3.40
2023-03-11T06:58:59.532Z,3.40
2023-03-11T07:01:28.704Z,3.40
2023-03-11T07:03:57.054Z,3.40
2023-03-11T07:06:27.237Z,3.40
2023-03-11T07:08:55.848Z,3.40
2023-03-11T07:11:25.647Z,3.40
2023-03-11T07:13:54.499Z,3.40
2023-03-11T07:16:25.784Z,3.40
2023-03-11T07:18:56.597Z,3.40
2023-03-11T07:21:25.321Z,3.40
2023-03-11T07:23:55.051Z,3.40
2023-03-11T07:26:24.304Z,3.40
2023-03-11T07:28:53.111Z,3.40
2023-03-11T07:31:25.073Z,3.50
2023-03-11T07:33:53.847Z,3.50
2023-03-11T07:36:24.187Z,3.60
2023-03-11T07:38:58.314Z,3.70
2023-03-11T07:41:27.249Z,3.70
2023-03-11T07:43:56.758Z,3.80
2023-03-11T07:46:27.966Z,3.80
2023-03-11T07:48:56.958Z,3.90
2023-03-11T07:51:27.286Z,3.90
2023-03-11T07:53:56.851Z,3.90
2023-03-11T07:56:27.122Z,4.00
2023-03-11T07:58:56.123Z,3.90
2023-03-11T08:01:27.662Z,4.00
2023-03-11T08:03:58.557Z,4.00
2023-03-11T08:06:29.135Z,4.00
2023-03-11T08:08:57.345Z,4.10
2023-03-11T08:11:26.117Z,4.10
2023-03-11T08:13:55.128Z,4.10
2023-03-11T08:16:23.672Z,4.20
2023-03-11T08:18:54.277Z,4.20
2023-03-11T08:21:27.171Z,4.30
2023-03-11T08:23:58.653Z,4.40
2023-03-11T08:26:27.008Z,4.40
2023-03-11T08:28:56.320Z,4.50
2023-03-11T08:31:26.400Z,4.60
2023-03-11T08:33:58.830Z,4.60
2023-03-11T08:36:27.557Z,4.70
2023-03-11T08:38:56.010Z,4.80
2023-03-11T08:41:24.838Z,4.90
2023-03-11T08:43:53.208Z,5.00
2023-03-11T08:46:25.043Z,5.00
2023-03-11T08:48:54.514Z,5.20
2023-03-11T08:51:25.321Z,5.20
2023-03-11T08:53:54.487Z,5.20
2023-03-11T08:56:22.639Z,5.20
2023-03-11T08:58:50.997Z,5.20
2023-03-11T09:01:20.420Z,5.20
2023-03-11T09:03:48.662Z,5.30
2023-03-11T09:06:17.969Z,5.30
2023-03-11T09:08:49.326Z,5.30
2023-03-11T09:11:18.176Z,5.30
2023-03-11T09:13:46.771Z,5.30
2023-03-11T09:16:16.716Z,5.30
2023-03-11T09:18:45.174Z,5.40
2023-03-11T09:21:13.763Z,5.40
2023-03-11T09:23:44.341Z,5.50
2023-03-11T09:26:14.734Z,5.50
2023-03-11T09:28:46.953Z,5.60
2023-03-11T09:31:15.688Z,5.60
2023-03-11T09:33:44.435Z,5.60
2023-03-11T09:36:15.161Z,5.70
2023-03-11T09:38:43.722Z,5.80
2023-03-11T09:41:27.105Z,5.80
2023-03-11T09:44:11.146Z,5.80
2023-03-11T09:47:13.744Z,5.80
2023-03-11T09:49:53.822Z,5.90
2023-03-11T09:52:31.115Z,5.90
2023-03-11T09:55:02.172Z,6.00
2023-03-11T09:57:35.314Z,6.00
2023-03-11T10:00:05.701Z,6.10
2023-03-11T10:02:37.367Z,6.10
2023-03-11T10:05:13.950Z,6.20
2023-03-11T10:07:44.886Z,6.30
2023-03-11T10:10:15.131Z,6.30
2023-03-11T10:12:57.749Z,6.40
2023-03-11T10:15:48.136Z,6.50
2023-03-11T10:18:41.746Z,6.60
2023-03-11T10:21:19.625Z,6.60
2023-03-11T10:24:03.172Z,6.70
2023-03-11T10:26:37.048Z,6.80
2023-03-11T10:29:16.248Z,6.80
2023-03-11T10:31:48.763Z,6.90
2023-03-11T10:34:22.777Z,6.90
2023-03-11T10:36:59.799Z,6.90
2023-03-11T10:39:28.690Z,6.90
2023-03-11T10:42:00.315Z,6.80
2023-03-11T10:44:33.853Z,6.70
2023-03-11T10:47:02.702Z,6.70
2023-03-11T10:49:31.551Z,6.70
2023-03-11T10:52:00.087Z,6.70
2023-03-11T10:54:33.830Z,6.60
2023-03-11T10:57:03.666Z,6.70
2023-03-11T10:59:37.474Z,6.70
2023-03-11T11:02:23.468Z,6.70
2023-03-11T11:05:20.022Z,6.70
2023-03-11T11:07:49.506Z,6.80
2023-03-11T11:10:20.585Z,6.80
2023-03-11T11:12:57.613Z,6.90
2023-03-11T11:15:30.783Z,6.90
2023-03-11T11:18:01.586Z,7.00
2023-03-11T11:20:31.252Z,7.00
2023-03-11T11:23:01.165Z,7.10
2023-03-11T11:25:33.651Z,7.20
2023-03-11T11:28:05.173Z,7.30
2023-03-11T11:30:34.752Z,7.30
2023-03-11T11:33:24.350Z,7.40
2023-03-11T11:35:55.344Z,7.40
2023-03-11T11:38:25.315Z,7.40
2023-03-11T11:40:56.092Z,7.40
2023-03-11T11:43:36.986Z,7.40
2023-03-11T11:46:13.388Z,7.50
2023-03-11T11:48:48.581Z,7.50
2023-03-11T11:51:21.563Z,7.40
2023-03-11T11:53:55.369Z,7.20
2023-03-11T11:56:26.218Z,7.20
2023-03-11T11:58:55.303Z,7.20
2023-03-11T12:01:40.691Z,7.20
2023-03-11T12:04:33.892Z,7.30
2023-03-11T12:07:33.195Z,7.30
2023-03-11T12:10:22.155Z,7.40
2023-03-11T12:13:08.393Z,7.30
2023-03-11T12:15:42.089Z,7.20
2023-03-11T12:18:18.107Z,7.30
2023-03-11T12:20:50.253Z,7.30
2023-03-11T12:23:33.712Z,7.40
2023-03-11T12:26:19.597Z,7.40
2023-03-11T12:28:53.320Z,7.50
2023-03-11T12:31:24.345Z,7.60
2023-03-11T12:33:58.951Z,7.50
2023-03-11T12:36:31.952Z,7.50
2023-03-11T12:39:02.015Z,7.60
2023-03-11T12:41:38.660Z,7.60
2023-03-11T12:44:26.423Z,7.50
2023-03-11T12:47:27.245Z,7.60
2023-03-11T12:50:17.630Z,7.60
2023-03-11T12:52:56.047Z,7.70
2023-03-11T12:55:33.893Z,7.70
2023-03-11T12:58:34.811Z,7.70
2023-03-11T13:01:36.505Z,7.90
2023-03-11T13:04:22.079Z,7.90
2023-03-11T13:07:39.523Z,7.90
2023-03-11T13:10:21.445Z,7.80
2023-03-11T13:12:51.125Z,7.90
2023-03-11T13:15:46.717Z,7.90
2023-03-11T13:18:18.699Z,8.00
2023-03-11T13:20:55.933Z,8.00
2023-03-11T13:23:34.871Z,8.20
2023-03-11T13:26:30.232Z,8.30
2023-03-11T13:29:21.112Z,8.50
2023-03-11T13:32:14.191Z,8.70
2023-03-11T13:34:50.730Z,8.90
2023-03-11T13:37:28.860Z,9.00
2023-03-11T13:40:21.049Z,9.00
2023-03-11T13:42:51.550Z,9.10
2023-03-11T13:45:29.873Z,9.10
2023-03-11T13:48:01.545Z,9.10
2023-03-11T13:50:36.434Z,9.10
2023-03-11T13:53:09.760Z,9.20
2023-03-11T13:55:42.319Z,9.30
2023-03-11T13:58:18.344Z,9.40
2023-03-11T14:00:50.959Z,9.30
2023-03-11T14:03:22.834Z,9.60
2023-03-11T14:05:52.393Z,9.80
2023-03-11T14:08:24.192Z,10.20
2023-03-11T14:10:58.657Z,10.50
2023-03-11T14:13:30.246Z,10.80
2023-03-11T14:16:05.211Z,11.10
2023-03-11T14:18:39.055Z,11.40
2023-03-11T14:21:13.708Z,11.80
2023-03-11T14:23:43.556Z,12.20
2023-03-11T14:26:18.603Z,12.40
2023-03-11T14:28:49.648Z,12.60
2023-03-11T14:31:29.924Z,13.00
2023-03-11T14:34:04.240Z,13.20
2023-03-11T14:36:41.503Z,13.40
2023-03-11T14:39:27.407Z,13.70
2023-03-11T14:42:02.402Z,13.90
2023-03-11T14:44:32.716Z,14.10
2023-03-11T14:47:10.020Z,14.20
2023-03-11T14:49:39.313Z,14.20
2023-03-11T14:52:15.048Z,14.40
2023-03-11T14:54:44.824Z,14.20
2023-03-11T14:57:20.478Z,14.30
2023-03-11T14:59:51.722Z,14.30
2023-03-11T15:02:36.163Z,14.40
2023-03-11T15:05:10.889Z,14.50
2023-03-11T15:07:39.797Z,14.60
2023-03-11T15:10:10.569Z,14.70
2023-03-11T15:12:42.926Z,14.80
2023-03-11T15:15:24.195Z,14.80
2023-03-11T15:17:56.511Z,14.70
2023-03-11T15:20:27.355Z,14.70
2023-03-11T15:23:00.684Z,14.60
2023-03-11T15:25:31.242Z,14.80
2023-03-11T15:28:01.561Z,14.60
2023-03-11T15:30:32.017Z,14.60
2023-03-11T15:33:00.572Z,14.60
2023-03-11T15:35:29.709Z,14.80
2023-03-11T15:38:23.717Z,14.60
2023-03-11T15:40:54.605Z,14.60
2023-03-11T15:43:29.426Z,14.40
2023-03-11T15:45:58.933Z,14.20
2023-03-11T15:48:29.918Z,14.20
2023-03-11T15:51:01.572Z,14.20
2023-03-11T15:53:31.576Z,14.20
2023-03-11T15:56:11.506Z,14.20
2023-03-11T15:58:41.087Z,14.10
2023-03-11T16:01:10.445Z,14.00
2023-03-11T16:03:38.953Z,13.70
2023-03-11T16:06:07.610Z,13.30
2023-03-11T16:08:35.866Z,12.90
2023-03-11T16:11:04.104Z,12.40
2023-03-11T16:13:32.307Z,11.90
2023-03-11T16:16:04.243Z,11.50
2023-03-11T16:18:33.693Z,11.10
2023-03-11T16:21:04.702Z,10.80
2023-03-11T16:23:50.663Z,10.50
2023-03-11T16:26:20.334Z,10.30
2023-03-11T16:28:48.573Z,10.10
2023-03-11T16:31:18.358Z,9.90
2023-03-11T16:33:47.051Z,9.70
2023-03-11T16:36:15.390Z,9.50
2023-03-11T16:38:46.586Z,9.40
2023-03-11T16:41:15.216Z,9.30
2023-03-11T16:43:43.790Z,9.20
2023-03-11T16:46:12.162Z,9.00
2023-03-11T16:48:41.846Z,9.00
2023-03-11T16:51:10.433Z,8.80
2023-03-11T16:53:38.645Z,8.80
2023-03-11T16:56:07.749Z,8.60
2023-03-11T16:58:35.925Z,8.60
2023-03-11T17:01:04.264Z,8.60
2023-03-11T17:03:41.917Z,8.50
2023-03-11T17:06:11.916Z,8.40
2023-03-11T17:08:40.244Z,8.40
2023-03-11T17:11:15.728Z,8.30
2023-03-11T17:13:44.704Z,8.30
2023-03-11T17:16:13.767Z,8.20
2023-03-11T17:18:42.204Z,8.20
2023-03-11T17:21:13.058Z,8.10
2023-03-11T17:23:41.994Z,8.10
2023-03-11T17:26:11.742Z,8.00
2023-03-11T17:28:40.651Z,8.00
2023-03-11T17:31:12.715Z,7.90
2023-03-11T17:33:41.454Z,7.80
2023-03-11T17:36:15.909Z,7.80
2023-03-11T17:38:44.896Z,7.70
2023-03-11T17:41:19.132Z,7.60
2023-03-11T17:43:49.715Z,7.50
2023-03-11T17:46:20.357Z,7.40
2023-03-11T17:48:49.981Z,7.40
2023-03-11T17:51:22.217Z,7.30
2023-03-11T17:53:51.007Z,7.20
2023-03-11T17:56:21.313Z,7.10
2023-03-11T17:58:50.511Z,7.10
2023-03-11T18:01:21.390Z,7.00
2023-03-11T18:03:49.926Z,6.90
2023-03-11T18:06:21.659Z,6.80
2023-03-11T18:08:49.920Z,6.80
2023-03-11T18:11:20.444Z,6.70
2023-03-11T18:13:48.761Z,6.60
2023-03-11T18:16:19.956Z,6.60
2023-03-11T18:18:49.319Z,6.50
2023-03-11T18:21:20.868Z,6.50
2023-03-11T18:23:49.165Z,6.40
2023-03-11T18:26:19.037Z,6.40
2023-03-11T18:28:47.555Z,6.40
2023-03-11T18:31:17.309Z,6.30
2023-03-11T18:33:49.708Z,6.20
2023-03-11T18:36:21.026Z,6.20
2023-03-11T18:38:50.496Z,6.20
2023-03-11T18:41:18.937Z,6.10
2023-03-11T18:43:47.174Z,6.00
2023-03-11T18:46:17.180Z,6.00
2023-03-11T18:48:45.364Z,5.90
2023-03-11T18:51:14.162Z,5.80
2023-03-11T18:53:43.704Z,5.80
2023-03-11T18:56:13.627Z,5.80
2023-03-11T18:58:41.890Z,5.70
2023-03-11T19:01:12.278Z,5.70
2023-03-11T19:03:41.129Z,5.60
2023-03-11T19:06:09.920Z,5.50
2023-03-11T19:08:38.184Z,5.50
2023-03-11T19:11:08.844Z,5.40
2023-03-11T19:13:46.528Z,5.40
2023-03-11T19:16:16.079Z,5.30
2023-03-11T19:18:44.278Z,5.40
2023-03-11T19:21:14.722Z,5.30
2023-03-11T19:23:42.876Z,5.30
2023-03-11T19:26:12.753Z,5.20
2023-03-11T19:28:41.042Z,5.10
2023-03-11T19:31:09.412Z,5.10
2023-03-11T19:33:37.703Z,5.10
2023-03-11T19:36:08.347Z,5.00
2023-03-11T19:38:36.874Z,4.90
2023-03-11T19:41:07.386Z,4.90
2023-03-11T19:43:37.820Z,4.90
2023-03-11T19:46:07.854Z,4.80
2023-03-11T19:48:36.225Z,4.80
2023-03-11T19:51:07.623Z,4.80
2023-03-11T19:53:37.106Z,4.70
2023-03-11T19:56:06.692Z,4.70
2023-03-11T19:58:37.122Z,4.60
2023-03-11T20:01:05.760Z,4.60
2023-03-11T20:03:34.200Z,4.50
2023-03-11T20:06:06.411Z,4.50
2023-03-11T20:08:37.213Z,4.50
2023-03-11T20:11:06.565Z,4.50
2023-03-11T20:13:38.046Z,4.40
2023-03-11T20:16:08.242Z,4.40
2023-03-11T20:18:36.718Z,4.40
2023-03-11T20:21:09.697Z,4.40
2023-03-11T20:23:38.495Z,4.30
2023-03-11T20:26:08.446Z,4.30
2023-03-11T20:28:38.482Z,4.30
2023-03-11T20:31:12.741Z,4.30
2023-03-11T20:33:41.313Z,4.30
2023-03-11T20:36:14.432Z,4.20
2023-03-11T20:38:45.090Z,4.20
2023-03-11T20:41:13.449Z,4.20
2023-03-11T20:43:43.768Z,4.20
2023-03-11T20:46:13.542Z,4.10
2023-03-11T20:48:43.975Z,4.10
2023-03-11T20:51:14.979Z,4.10
2023-03-11T20:53:43.816Z,4.00
2023-03-11T20:56:14.570Z,4.00
2023-03-11T20:58:45.670Z,3.90
2023-03-11T21:01:15.686Z,3.90
2023-03-11T21:03:44.878Z,3.90
2023-03-11T21:06:18.714Z,3.80
2023-03-11T21:08:47.413Z,3.80
2023-03-11T21:11:18.547Z,3.80
2023-03-11T21:13:48.375Z,3.80
2023-03-11T21:16:16.929Z,3.80
2023-03-11T21:18:49.169Z,3.80
2023-03-11T21:21:19.015Z,3.70
2023-03-11T21:23:49.536Z,3.70
2023-03-11T21:26:19.266Z,3.70
2023-03-11T21:28:48.771Z,3.70
2023-03-11T21:31:19.184Z,3.70
2023-03-11T21:33:48.204Z,3.70
2023-03-11T21:36:17.535Z,3.70
2023-03-11T21:38:46.047Z,3.70
2023-03-11T21:41:16.559Z,3.70
2023-03-11T21:43:45.412Z,3.70
2023-03-11T21:46:17.810Z,3.70
2023-03-11T21:48:47.017Z,3.70
2023-03-11T21:51:16.552Z,3.70
2023-03-11T21:53:45.180Z,3.80
2023-03-11T21:56:14.168Z,3.80
2023-03-11T21:58:46.007Z,3.80
2023-03-11T22:01:17.847Z,3.80
2023-03-11T22:03:47.191Z,3.80
2023-03-11T22:06:15.916Z,3.80
2023-03-11T22:08:44.291Z,3.90
2023-03-11T22:11:17.677Z,3.90
2023-03-11T22:13:47.223Z,3.90
2023-03-11T22:16:16.968Z,3.90
2023-03-11T22:18:48.794Z,3.90
2023-03-11T22:21:18.569Z,3.90
2023-03-11T22:23:47.366Z,3.90
2023-03-11T22:26:19.523Z,3.90
2023-03-11T22:28:50.136Z,3.90
2023-03-11T22:31:22.509Z,3.90
2023-03-11T22:33:50.916Z,3.90
2023-03-11T22:36:19.109Z,3.90
2023-03-11T22:38:47.437Z,3.90
2023-03-11T22:41:19.153Z,3.90
2023-03-11T22:43:48.384Z,4.00
2023-03-11T22:46:16.715Z,4.00
2023-03-11T22:48:46.314Z,4.00
2023-03-11T22:51:14.868Z,4.00
2023-03-11T22:53:43.114Z,4.00
2023-03-11T22:56:14.325Z,4.00
2023-03-11T22:58:43.344Z,4.00
2023-03-11T23:01:12.427Z,4.00
2023-03-11T23:03:40.993Z,4.10
2023-03-11T23:06:13.456Z,4.10
2023-03-11T23:08:41.945Z,4.10
2023-03-11T23:11:13.044Z,4.00
2023-03-11T23:13:42.408Z,4.00
2023-03-11T23:16:14.074Z,4.00
2023-03-11T23:18:44.218Z,4.00
2023-03-11T23:21:19.785Z,4.00
2023-03-11T23:23:50.928Z,4.00
2023-03-11T23:26:23.110Z,4.00
2023-03-11T23:28:52.230Z,4.00
2023-03-11T23:31:22.892Z,4.00
2023-03-11T23:33:51.913Z,4.00
2023-03-11T23:36:25.743Z,4.00
2023-03-11T23:38:53.955Z,4.10
2023-03-11T23:41:23.824Z,4.00
2023-03-11T23:43:52.112Z,4.00
2023-03-11T23:46:22.692Z,4.00
2023-03-11T23:48:53.909Z,4.00
2023-03-11T23:51:23.649Z,4.10
2023-03-11T23:53:51.877Z,4.10
2023-03-11T23:56:20.525Z,4.10
2023-03-11T23:58:49.028Z,4.10
